sensor_id;sensor_type;location;lat;lon;timestamp;P1;durP1;ratioP1;P2;durP2;ratioP2
54368;SDS011;40266;52.434;17.056;2022-09-01T00:51:37;2.90;;;2.30;;
54368;SDS011;40266;52.434;17.056;2022-09-01T01:15:06;5.40;;;2.40;;
54368;SDS011;40266;52.434;17.056;2022-09-01T01:49:15;5.60;;;2.80;;
54368;SDS011;40266;52.434;17.056;2022-09-01T02:19:25;7.70;;;2.50;;
54368;SDS011;40266;52.434;17.056;2022-09-01T02:54:26;7.50;;;2.50;;
54368;SDS011;40266;52.434;17.056;2022-09-01T03:06:04;4.20;;;2.40;;
54368;SDS011;40266;52.434;17.056;2022-09-01T04:21:55;8.70;;;3.70;;
54368;SDS011;40266;52.434;17.056;2022-09-01T04:48:50;8.70;;;3.50;;
54368;SDS011;40266;52.434;17.056;2022-09-01T05:08:11;9.60;;;3.20;;
54368;SDS011;40266;52.434;17.056;2022-09-01T05:39:59;7.70;;;3.10;;
54368;SDS011;40266;52.434;17.056;2022-09-01T05:51:19;3.80;;;2.40;;
54368;SDS011;40266;52.434;17.056;2022-09-01T05:55:04;3.60;;;2.60;;
54368;SDS011;40266;52.434;17.056;2022-09-01T06:01:55;3.50;;;1.90;;
54368;SDS011;40266;52.434;17.056;2022-09-01T06:08:52;9.20;;;2.20;;
54368;SDS011;40266;52.434;17.056;2022-09-01T06:12:26;5.70;;;1.80;;
54368;SDS011;40266;52.434;17.056;2022-09-01T06:19:29;3.00;;;1.80;;
54368;SDS011;40266;52.434;17.056;2022-09-01T06:22:22;4.50;;;1.40;;
54368;SDS011;40266;52.434;17.056;2022-09-01T06:25:21;3.00;;;1.40;;
54368;SDS011;40266;52.434;17.056;2022-09-01T06:32:02;7.00;;;1.80;;
54368;SDS011;40266;52.434;17.056;2022-09-01T06:37:59;3.00;;;1.70;;
54368;SDS011;40266;52.434;17.056;2022-09-01T06:44:14;6.10;;;1.20;;
54368;SDS011;40266;52.434;17.056;2022-09-01T06:47:23;5.60;;;1.40;;
54368;SDS011;40266;52.434;17.056;2022-09-01T06:50:11;2.30;;;1.10;;
54368;SDS011;40266;52.434;17.056;2022-09-01T06:53:19;5.60;;;1.50;;
54368;SDS011;40266;52.434;17.056;2022-09-01T06:56:42;2.10;;;1.00;;
54368;SDS011;40266;52.434;17.056;2022-09-01T06:59:33;4.50;;;0.60;;
54368;SDS011;40266;52.434;17.056;2022-09-01T07:02:18;5.20;;;1.80;;
54368;SDS011;40266;52.434;17.056;2022-09-01T07:05:50;4.50;;;1.10;;
54368;SDS011;40266;52.434;17.056;2022-09-01T07:09:02;2.70;;;0.80;;
54368;SDS011;40266;52.434;17.056;2022-09-01T07:12:37;5.80;;;1.00;;
54368;SDS011;40266;52.434;17.056;2022-09-01T07:15:50;6.00;;;1.40;;
54368;SDS011;40266;52.434;17.056;2022-09-01T07:22:00;9.30;;;0.90;;
54368;SDS011;40266;52.434;17.056;2022-09-01T07:25:23;4.90;;;0.90;;
54368;SDS011;40266;52.434;17.056;2022-09-01T07:28:49;3.80;;;1.10;;
54368;SDS011;40266;52.434;17.056;2022-09-01T07:32:11;1.60;;;0.80;;
54368;SDS011;40266;52.434;17.056;2022-09-01T07:35:50;5.30;;;1.10;;
54368;SDS011;40266;52.434;17.056;2022-09-01T07:39:02;1.30;;;0.60;;
54368;SDS011;40266;52.434;17.056;2022-09-01T07:42:29;3.00;;;0.70;;
54368;SDS011;40266;52.434;17.056;2022-09-01T07:46:01;3.00;;;1.00;;
54368;SDS011;40266;52.434;17.056;2022-09-01T07:53:44;1.60;;;0.70;;
54368;SDS011;40266;52.434;17.056;2022-09-01T07:56:28;2.60;;;0.60;;
54368;SDS011;40266;52.434;17.056;2022-09-01T07:59:23;0.50;;;0.40;;
54368;SDS011;40266;52.434;17.056;2022-09-01T08:02:26;2.00;;;0.40;;
54368;SDS011;40266;52.434;17.056;2022-09-01T08:08:08;1.80;;;0.80;;
54368;SDS011;40266;52.434;17.056;2022-09-01T08:11:56;3.30;;;0.60;;
54368;SDS011;40266;52.434;17.056;2022-09-01T08:14:43;1.70;;;0.80;;
54368;SDS011;40266;52.434;17.056;2022-09-01T08:21:07;6.60;;;0.90;;
54368;SDS011;40266;52.434;17.056;2022-09-01T08:24:16;2.90;;;1.00;;
54368;SDS011;40266;52.434;17.056;2022-09-01T08:27:22;8.60;;;1.90;;
54368;SDS011;40266;52.434;17.056;2022-09-01T08:30:18;2.00;;;0.80;;
54368;SDS011;40266;52.434;17.056;2022-09-01T08:33:37;6.50;;;0.70;;
54368;SDS011;40266;52.434;17.056;2022-09-01T08:36:21;1.90;;;0.50;;
54368;SDS011;40266;52.434;17.056;2022-09-01T08:39:17;2.10;;;0.70;;
54368;SDS011;40266;52.434;17.056;2022-09-01T08:45:32;3.70;;;0.50;;
54368;SDS011;40266;52.434;17.056;2022-09-01T08:58:36;1.30;;;0.50;;
54368;SDS011;40266;52.434;17.056;2022-09-01T09:01:49;1.80;;;0.40;;
54368;SDS011;40266;52.434;17.056;2022-09-01T09:05:06;3.80;;;0.60;;
54368;SDS011;40266;52.434;17.056;2022-09-01T09:12:10;1.00;;;0.40;;
54368;SDS011;40266;52.434;17.056;2022-09-01T09:15:46;2.70;;;0.60;;
54368;SDS011;40266;52.434;17.056;2022-09-01T09:21:38;1.40;;;0.60;;
54368;SDS011;40266;52.434;17.056;2022-09-01T09:24:54;1.00;;;0.60;;
54368;SDS011;40266;52.434;17.056;2022-09-01T09:31:28;1.40;;;0.40;;
54368;SDS011;40266;52.434;17.056;2022-09-01T09:34:32;0.80;;;0.30;;
54368;SDS011;40266;52.434;17.056;2022-09-01T09:37:33;2.10;;;0.40;;
54368;SDS011;40266;52.434;17.056;2022-09-01T09:43:58;0.50;;;0.50;;
54368;SDS011;40266;52.434;17.056;2022-09-01T09:46:46;0.50;;;0.50;;
54368;SDS011;40266;52.434;17.056;2022-09-01T09:49:31;3.50;;;0.30;;
54368;SDS011;40266;52.434;17.056;2022-09-01T09:52:18;2.40;;;0.20;;
54368;SDS011;40266;52.434;17.056;2022-09-01T09:55:17;0.40;;;0.30;;
54368;SDS011;40266;52.434;17.056;2022-09-01T09:58:11;1.20;;;0.50;;
54368;SDS011;40266;52.434;17.056;2022-09-01T10:01:03;0.30;;;0.30;;
54368;SDS011;40266;52.434;17.056;2022-09-01T10:03:58;1.70;;;0.40;;
54368;SDS011;40266;52.434;17.056;2022-09-01T10:06:46;1.20;;;0.20;;
54368;SDS011;40266;52.434;17.056;2022-09-01T10:09:34;4.00;;;0.50;;
54368;SDS011;40266;52.434;17.056;2022-09-01T10:12:28;1.50;;;0.40;;
54368;SDS011;40266;52.434;17.056;2022-09-01T10:15:12;1.30;;;0.40;;
54368;SDS011;40266;52.434;17.056;2022-09-01T10:18:03;4.90;;;1.00;;
54368;SDS011;40266;52.434;17.056;2022-09-01T10:21:03;5.90;;;0.60;;
54368;SDS011;40266;52.434;17.056;2022-09-01T10:24:01;2.00;;;0.70;;
54368;SDS011;40266;52.434;17.056;2022-09-01T10:27:14;2.50;;;0.40;;
54368;SDS011;40266;52.434;17.056;2022-09-01T10:33:02;2.40;;;0.40;;
54368;SDS011;40266;52.434;17.056;2022-09-01T10:36:01;3.80;;;0.40;;
54368;SDS011;40266;52.434;17.056;2022-09-01T10:38:51;2.80;;;0.20;;
54368;SDS011;40266;52.434;17.056;2022-09-01T10:41:52;1.20;;;0.30;;
54368;SDS011;40266;52.434;17.056;2022-09-01T10:48:25;1.20;;;0.30;;
54368;SDS011;40266;52.434;17.056;2022-09-01T10:51:41;2.30;;;0.30;;
54368;SDS011;40266;52.434;17.056;2022-09-01T10:58:07;1.00;;;0.50;;
54368;SDS011;40266;52.434;17.056;2022-09-01T11:01:13;1.90;;;0.40;;
54368;SDS011;40266;52.434;17.056;2022-09-01T11:05:09;2.40;;;0.90;;
54368;SDS011;40266;52.434;17.056;2022-09-01T11:10:47;1.60;;;0.30;;
54368;SDS011;40266;52.434;17.056;2022-09-01T11:13:45;1.00;;;0.50;;
54368;SDS011;40266;52.434;17.056;2022-09-01T11:16:42;2.50;;;0.30;;
54368;SDS011;40266;52.434;17.056;2022-09-01T11:22:59;1.40;;;0.50;;
54368;SDS011;40266;52.434;17.056;2022-09-01T11:25:46;6.70;;;0.80;;
54368;SDS011;40266;52.434;17.056;2022-09-01T11:28:54;11.20;;;1.20;;
54368;SDS011;40266;52.434;17.056;2022-09-01T11:31:39;0.50;;;0.30;;
54368;SDS011;40266;52.434;17.056;2022-09-01T11:34:26;0.20;;;0.20;;
54368;SDS011;40266;52.434;17.056;2022-09-01T11:37:11;1.40;;;0.60;;
54368;SDS011;40266;52.434;17.056;2022-09-01T11:39:59;1.10;;;0.50;;
54368;SDS011;40266;52.434;17.056;2022-09-01T11:42:49;0.60;;;0.20;;
54368;SDS011;40266;52.434;17.056;2022-09-01T11:51:43;3.90;;;0.30;;
54368;SDS011;40266;52.434;17.056;2022-09-01T11:54:35;0.80;;;0.70;;
54368;SDS011;40266;52.434;17.056;2022-09-01T11:57:31;3.00;;;0.90;;
54368;SDS011;40266;52.434;17.056;2022-09-01T12:00:26;4.50;;;0.40;;
54368;SDS011;40266;52.434;17.056;2022-09-01T12:03:26;0.40;;;0.30;;
54368;SDS011;40266;52.434;17.056;2022-09-01T12:06:31;6.80;;;0.80;;
54368;SDS011;40266;52.434;17.056;2022-09-01T12:09:21;0.90;;;0.60;;
54368;SDS011;40266;52.434;17.056;2022-09-01T12:12:34;1.30;;;0.60;;
54368;SDS011;40266;52.434;17.056;2022-09-01T12:15:23;4.30;;;0.70;;
54368;SDS011;40266;52.434;17.056;2022-09-01T12:18:09;3.40;;;1.00;;
54368;SDS011;40266;52.434;17.056;2022-09-01T12:21:02;3.70;;;0.60;;
54368;SDS011;40266;52.434;17.056;2022-09-01T12:24:35;1.20;;;0.40;;
54368;SDS011;40266;52.434;17.056;2022-09-01T12:27:07;0.40;;;0.40;;
54368;SDS011;40266;52.434;17.056;2022-09-01T12:29:53;1.10;;;0.60;;
54368;SDS011;40266;52.434;17.056;2022-09-01T12:32:45;0.50;;;0.40;;
54368;SDS011;40266;52.434;17.056;2022-09-01T12:35:35;0.90;;;0.60;;
54368;SDS011;40266;52.434;17.056;2022-09-01T12:38:28;1.40;;;0.70;;
54368;SDS011;40266;52.434;17.056;2022-09-01T12:41:25;3.80;;;0.30;;
54368;SDS011;40266;52.434;17.056;2022-09-01T12:50:45;1.70;;;0.40;;
54368;SDS011;40266;52.434;17.056;2022-09-01T12:53:48;3.70;;;0.50;;
54368;SDS011;40266;52.434;17.056;2022-09-01T12:56:45;0.80;;;0.50;;
54368;SDS011;40266;52.434;17.056;2022-09-01T12:59:44;0.30;;;0.30;;
54368;SDS011;40266;52.434;17.056;2022-09-01T13:05:36;0.60;;;0.40;;
54368;SDS011;40266;52.434;17.056;2022-09-01T13:09:02;0.90;;;0.50;;
54368;SDS011;40266;52.434;17.056;2022-09-01T13:11:44;1.20;;;0.50;;
54368;SDS011;40266;52.434;17.056;2022-09-01T13:14:52;6.90;;;0.80;;
54368;SDS011;40266;52.434;17.056;2022-09-01T13:20:41;1.90;;;0.50;;
54368;SDS011;40266;52.434;17.056;2022-09-01T13:24:05;2.90;;;1.00;;
54368;SDS011;40266;52.434;17.056;2022-09-01T13:26:49;2.90;;;0.50;;
54368;SDS011;40266;52.434;17.056;2022-09-01T13:30:12;5.50;;;0.70;;
54368;SDS011;40266;52.434;17.056;2022-09-01T13:33:00;4.40;;;0.50;;
54368;SDS011;40266;52.434;17.056;2022-09-01T13:36:15;1.20;;;0.50;;
54368;SDS011;40266;52.434;17.056;2022-09-01T13:39:31;1.40;;;0.30;;
54368;SDS011;40266;52.434;17.056;2022-09-01T13:42:23;0.50;;;0.40;;
54368;SDS011;40266;52.434;17.056;2022-09-01T13:45:32;3.10;;;0.50;;
54368;SDS011;40266;52.434;17.056;2022-09-01T13:48:24;1.00;;;0.40;;
54368;SDS011;40266;52.434;17.056;2022-09-01T13:51:29;3.10;;;0.80;;
54368;SDS011;40266;52.434;17.056;2022-09-01T13:54:19;1.90;;;0.90;;
54368;SDS011;40266;52.434;17.056;2022-09-01T13:57:22;7.60;;;0.60;;
54368;SDS011;40266;52.434;17.056;2022-09-01T14:00:18;1.80;;;0.80;;
54368;SDS011;40266;52.434;17.056;2022-09-01T14:03:07;1.10;;;0.40;;
54368;SDS011;40266;52.434;17.056;2022-09-01T14:06:15;1.90;;;0.60;;
54368;SDS011;40266;52.434;17.056;2022-09-01T14:09:02;3.00;;;0.80;;
54368;SDS011;40266;52.434;17.056;2022-09-01T14:11:59;3.40;;;0.90;;
54368;SDS011;40266;52.434;17.056;2022-09-01T14:14:42;3.00;;;0.70;;
54368;SDS011;40266;52.434;17.056;2022-09-01T14:17:49;0.80;;;0.30;;
54368;SDS011;40266;52.434;17.056;2022-09-01T14:20:38;1.20;;;0.40;;
54368;SDS011;40266;52.434;17.056;2022-09-01T14:23:24;1.30;;;0.50;;
54368;SDS011;40266;52.434;17.056;2022-09-01T14:26:14;0.90;;;0.20;;
54368;SDS011;40266;52.434;17.056;2022-09-01T14:29:01;4.00;;;1.00;;
54368;SDS011;40266;52.434;17.056;2022-09-01T14:31:44;2.80;;;0.70;;
54368;SDS011;40266;52.434;17.056;2022-09-01T14:34:28;2.70;;;0.50;;
54368;SDS011;40266;52.434;17.056;2022-09-01T14:37:12;2.00;;;0.70;;
54368;SDS011;40266;52.434;17.056;2022-09-01T14:39:56;1.30;;;0.80;;
54368;SDS011;40266;52.434;17.056;2022-09-01T14:42:43;3.20;;;1.50;;
54368;SDS011;40266;52.434;17.056;2022-09-01T14:45:34;1.50;;;0.50;;
54368;SDS011;40266;52.434;17.056;2022-09-01T14:48:19;1.20;;;0.30;;
54368;SDS011;40266;52.434;17.056;2022-09-01T14:51:06;1.50;;;0.60;;
54368;SDS011;40266;52.434;17.056;2022-09-01T14:53:50;1.00;;;0.30;;
54368;SDS011;40266;52.434;17.056;2022-09-01T14:56:37;3.00;;;0.60;;
54368;SDS011;40266;52.434;17.056;2022-09-01T14:59:21;2.70;;;1.00;;
54368;SDS011;40266;52.434;17.056;2022-09-01T15:02:04;2.60;;;0.40;;
54368;SDS011;40266;52.434;17.056;2022-09-01T15:04:47;2.10;;;0.60;;
54368;SDS011;40266;52.434;17.056;2022-09-01T15:07:30;3.10;;;0.70;;
54368;SDS011;40266;52.434;17.056;2022-09-01T15:10:14;3.00;;;0.80;;
54368;SDS011;40266;52.434;17.056;2022-09-01T15:13:07;3.30;;;0.60;;
54368;SDS011;40266;52.434;17.056;2022-09-01T15:15:50;3.80;;;0.60;;
54368;SDS011;40266;52.434;17.056;2022-09-01T15:18:34;0.80;;;0.40;;
54368;SDS011;40266;52.434;17.056;2022-09-01T15:21:30;4.20;;;1.10;;
54368;SDS011;40266;52.434;17.056;2022-09-01T15:24:15;6.70;;;0.50;;
54368;SDS011;40266;52.434;17.056;2022-09-01T15:27:03;4.70;;;0.60;;
54368;SDS011;40266;52.434;17.056;2022-09-01T15:29:47;8.00;;;1.20;;
54368;SDS011;40266;52.434;17.056;2022-09-01T15:35:56;3.20;;;0.90;;
54368;SDS011;40266;52.434;17.056;2022-09-01T15:38:42;2.90;;;0.60;;
54368;SDS011;40266;52.434;17.056;2022-09-01T15:41:27;2.50;;;0.50;;
54368;SDS011;40266;52.434;17.056;2022-09-01T15:44:13;2.30;;;0.60;;
54368;SDS011;40266;52.434;17.056;2022-09-01T15:46:56;2.00;;;0.80;;
54368;SDS011;40266;52.434;17.056;2022-09-01T15:49:39;3.20;;;0.50;;
54368;SDS011;40266;52.434;17.056;2022-09-01T15:52:29;1.90;;;0.50;;
54368;SDS011;40266;52.434;17.056;2022-09-01T15:58:20;1.60;;;0.80;;
54368;SDS011;40266;52.434;17.056;2022-09-01T16:01:45;2.20;;;0.80;;
54368;SDS011;40266;52.434;17.056;2022-09-01T16:07:44;1.70;;;0.50;;
54368;SDS011;40266;52.434;17.056;2022-09-01T16:10:32;3.10;;;0.60;;
54368;SDS011;40266;52.434;17.056;2022-09-01T16:20:21;3.30;;;0.60;;
54368;SDS011;40266;52.434;17.056;2022-09-01T16:23:15;1.50;;;0.30;;
54368;SDS011;40266;52.434;17.056;2022-09-01T16:26:00;2.00;;;0.40;;
54368;SDS011;40266;52.434;17.056;2022-09-01T16:28:44;1.60;;;0.50;;
54368;SDS011;40266;52.434;17.056;2022-09-01T16:31:34;0.80;;;0.40;;
54368;SDS011;40266;52.434;17.056;2022-09-01T16:34:20;1.00;;;0.40;;
54368;SDS011;40266;52.434;17.056;2022-09-01T16:44:03;5.20;;;0.50;;
54368;SDS011;40266;52.434;17.056;2022-09-01T16:53:12;2.00;;;0.70;;
54368;SDS011;40266;52.434;17.056;2022-09-01T16:56:14;0.60;;;0.50;;
54368;SDS011;40266;52.434;17.056;2022-09-01T17:05:37;2.40;;;0.70;;
54368;SDS011;40266;52.434;17.056;2022-09-01T17:08:46;0.80;;;0.70;;
54368;SDS011;40266;52.434;17.056;2022-09-01T17:15:16;5.20;;;1.00;;
54368;SDS011;40266;52.434;17.056;2022-09-01T17:25:08;4.20;;;1.20;;
54368;SDS011;40266;52.434;17.056;2022-09-01T17:44:04;8.00;;;1.40;;
54368;SDS011;40266;52.434;17.056;2022-09-01T17:57:51;5.30;;;1.20;;
54368;SDS011;40266;52.434;17.056;2022-09-01T18:01:25;8.40;;;2.10;;
54368;SDS011;40266;52.434;17.056;2022-09-01T18:03:56;6.20;;;2.20;;
54368;SDS011;40266;52.434;17.056;2022-09-01T18:09:55;8.40;;;2.90;;
54368;SDS011;40266;52.434;17.056;2022-09-01T18:12:44;4.90;;;2.80;;
54368;SDS011;40266;52.434;17.056;2022-09-01T18:15:42;6.60;;;3.60;;
54368;SDS011;40266;52.434;17.056;2022-09-01T18:18:45;8.70;;;2.40;;
54368;SDS011;40266;52.434;17.056;2022-09-01T18:21:33;31.40;;;4.70;;
54368;SDS011;40266;52.434;17.056;2022-09-01T18:24:28;28.90;;;4.30;;
54368;SDS011;40266;52.434;17.056;2022-09-01T18:27:17;35.70;;;4.60;;
54368;SDS011;40266;52.434;17.056;2022-09-01T18:30:09;30.70;;;4.20;;
54368;SDS011;40266;52.434;17.056;2022-09-01T18:32:55;16.10;;;3.40;;
54368;SDS011;40266;52.434;17.056;2022-09-01T18:36:10;18.80;;;4.10;;
54368;SDS011;40266;52.434;17.056;2022-09-01T18:54:37;15.10;;;4.20;;
54368;SDS011;40266;52.434;17.056;2022-09-01T18:57:35;22.50;;;4.90;;
54368;SDS011;40266;52.434;17.056;2022-09-01T19:00:23;15.50;;;3.70;;
54368;SDS011;40266;52.434;17.056;2022-09-01T19:09:57;15.20;;;3.40;;
54368;SDS011;40266;52.434;17.056;2022-09-01T19:13:30;9.20;;;2.90;;
54368;SDS011;40266;52.434;17.056;2022-09-01T19:20:24;10.30;;;3.80;;
54368;SDS011;40266;52.434;17.056;2022-09-01T19:27:18;10.00;;;2.10;;
54368;SDS011;40266;52.434;17.056;2022-09-01T19:29:53;4.10;;;2.40;;
54368;SDS011;40266;52.434;17.056;2022-09-01T19:33:02;14.00;;;3.30;;
54368;SDS011;40266;52.434;17.056;2022-09-01T19:35:48;15.30;;;3.50;;
54368;SDS011;40266;52.434;17.056;2022-09-01T19:45:28;13.10;;;3.20;;
54368;SDS011;40266;52.434;17.056;2022-09-01T19:48:47;14.30;;;3.10;;
54368;SDS011;40266;52.434;17.056;2022-09-01T19:55:06;19.20;;;2.50;;
54368;SDS011;40266;52.434;17.056;2022-09-01T20:01:51;13.90;;;2.50;;
54368;SDS011;40266;52.434;17.056;2022-09-01T20:08:25;15.30;;;2.90;;
54368;SDS011;40266;52.434;17.056;2022-09-01T20:12:26;13.40;;;2.60;;
54368;SDS011;40266;52.434;17.056;2022-09-01T20:21:38;11.60;;;2.50;;
54368;SDS011;40266;52.434;17.056;2022-09-01T20:24:55;6.20;;;2.10;;
54368;SDS011;40266;52.434;17.056;2022-09-01T20:28:28;3.20;;;1.70;;
54368;SDS011;40266;52.434;17.056;2022-09-01T20:34:43;1.80;;;1.40;;
54368;SDS011;40266;52.434;17.056;2022-09-01T20:45:46;4.60;;;1.30;;
54368;SDS011;40266;52.434;17.056;2022-09-01T21:00:18;5.00;;;1.90;;
54368;SDS011;40266;52.434;17.056;2022-09-01T21:21:28;4.30;;;1.60;;
54368;SDS011;40266;52.434;17.056;2022-09-01T21:24:50;2.10;;;1.50;;
54368;SDS011;40266;52.434;17.056;2022-09-01T21:31:23;4.90;;;1.70;;
54368;SDS011;40266;52.434;17.056;2022-09-01T21:34:15;6.60;;;1.70;;
54368;SDS011;40266;52.434;17.056;2022-09-01T21:37:19;4.70;;;1.70;;
54368;SDS011;40266;52.434;17.056;2022-09-01T21:40:04;6.30;;;1.80;;
54368;SDS011;40266;52.434;17.056;2022-09-01T21:42:52;4.20;;;2.20;;
54368;SDS011;40266;52.434;17.056;2022-09-01T21:48:40;4.00;;;2.00;;
54368;SDS011;40266;52.434;17.056;2022-09-01T21:51:26;4.30;;;2.00;;
54368;SDS011;40266;52.434;17.056;2022-09-01T21:54:24;5.20;;;2.00;;
54368;SDS011;40266;52.434;17.056;2022-09-01T21:57:40;4.80;;;2.00;;
54368;SDS011;40266;52.434;17.056;2022-09-01T22:00:34;6.50;;;2.30;;
54368;SDS011;40266;52.434;17.056;2022-09-01T22:03:33;5.80;;;2.10;;
54368;SDS011;40266;52.434;17.056;2022-09-01T22:06:49;7.70;;;2.40;;
54368;SDS011;40266;52.434;17.056;2022-09-01T22:09:42;8.70;;;2.50;;
54368;SDS011;40266;52.434;17.056;2022-09-01T22:12:55;11.20;;;3.70;;
54368;SDS011;40266;52.434;17.056;2022-09-01T22:16:20;4.60;;;2.20;;
54368;SDS011;40266;52.434;17.056;2022-09-01T22:19:19;4.30;;;2.30;;
54368;SDS011;40266;52.434;17.056;2022-09-01T22:22:19;7.70;;;2.60;;
54368;SDS011;40266;52.434;17.056;2022-09-01T22:31:53;6.40;;;2.40;;
54368;SDS011;40266;52.434;17.056;2022-09-01T22:34:56;7.10;;;2.10;;
54368;SDS011;40266;52.434;17.056;2022-09-01T22:40:58;7.80;;;2.60;;
54368;SDS011;40266;52.434;17.056;2022-09-01T22:44:14;6.50;;;2.30;;
54368;SDS011;40266;52.434;17.056;2022-09-01T22:51:31;6.00;;;2.40;;
54368;SDS011;40266;52.434;17.056;2022-09-01T22:54:43;5.70;;;2.30;;
54368;SDS011;40266;52.434;17.056;2022-09-01T23:01:02;4.90;;;2.20;;
54368;SDS011;40266;52.434;17.056;2022-09-01T23:07:21;5.10;;;2.20;;
54368;SDS011;40266;52.434;17.056;2022-09-01T23:10:48;4.90;;;2.60;;
54368;SDS011;40266;52.434;17.056;2022-09-01T23:14:12;3.70;;;2.30;;
54368;SDS011;40266;52.434;17.056;2022-09-01T23:43:32;6.90;;;2.20;;
54368;SDS011;40266;52.434;17.056;2022-09-01T23:53:29;25.00;;;3.70;;
